sensor_id;sensor_type;location;lat;lon;timestamp;P1;durP1;ratioP1;P2;durP2;ratioP2
57443;SDS011;43289;52.962;6.196;2022-08-19T07:39:44;20.25;;;14.38;;
57443;SDS011;43289;52.962;6.196;2022-08-19T10:06:02;15.82;;;11.95;;
57443;SDS011;43289;52.962;6.196;2022-08-19T10:08:31;14.88;;;13.38;;
57443;SDS011;43289;52.962;6.196;2022-08-19T10:10:58;15.35;;;13.30;;
57443;SDS011;43289;52.962;6.196;2022-08-19T10:13:27;14.90;;;12.93;;
57443;SDS011;43289;52.962;6.196;2022-08-19T10:15:54;11.68;;;10.48;;
57443;SDS011;43289;52.962;6.196;2022-08-19T10:18:21;14.50;;;12.98;;
57443;SDS011;43289;52.962;6.196;2022-08-19T10:20:47;11.50;;;10.30;;
57443;SDS011;43289;52.962;6.196;2022-08-19T10:23:15;14.95;;;12.13;;
57443;SDS011;43289;52.962;6.196;2022-08-19T10:25:42;17.60;;;11.82;;
57443;SDS011;43289;52.962;6.196;2022-08-19T10:28:08;15.50;;;11.35;;
57443;SDS011;43289;52.962;6.196;2022-08-19T10:30:37;15.10;;;11.50;;
57443;SDS011;43289;52.962;6.196;2022-08-19T10:33:03;13.32;;;11.82;;
57443;SDS011;43289;52.962;6.196;2022-08-19T10:35:29;12.23;;;10.93;;
57443;SDS011;43289;52.962;6.196;2022-08-19T10:37:55;14.55;;;10.25;;
57443;SDS011;43289;52.962;6.196;2022-08-19T10:40:26;15.82;;;10.63;;
57443;SDS011;43289;52.962;6.196;2022-08-19T10:42:53;13.82;;;8.90;;
57443;SDS011;43289;52.962;6.196;2022-08-19T10:45:20;12.15;;;9.18;;
57443;SDS011;43289;52.962;6.196;2022-08-19T10:47:49;13.50;;;9.52;;
57443;SDS011;43289;52.962;6.196;2022-08-19T10:50:16;12.32;;;9.23;;
57443;SDS011;43289;52.962;6.196;2022-08-19T10:55:27;13.25;;;9.98;;
57443;SDS011;43289;52.962;6.196;2022-08-19T10:58:12;14.57;;;11.93;;
57443;SDS011;43289;52.962;6.196;2022-08-19T11:00:38;18.00;;;11.95;;
57443;SDS011;43289;52.962;6.196;2022-08-19T11:03:05;13.73;;;11.98;;
57443;SDS011;43289;52.962;6.196;2022-08-19T11:05:31;12.93;;;10.88;;
57443;SDS011;43289;52.962;6.196;2022-08-19T11:07:57;11.77;;;10.00;;
57443;SDS011;43289;52.962;6.196;2022-08-19T11:10:23;10.93;;;8.68;;
57443;SDS011;43289;52.962;6.196;2022-08-19T11:12:49;14.60;;;10.65;;
57443;SDS011;43289;52.962;6.196;2022-08-19T11:15:19;13.32;;;11.93;;
57443;SDS011;43289;52.962;6.196;2022-08-19T11:17:45;16.10;;;12.50;;
57443;SDS011;43289;52.962;6.196;2022-08-19T11:20:11;14.98;;;11.23;;
57443;SDS011;43289;52.962;6.196;2022-08-19T11:22:38;10.45;;;9.25;;
57443;SDS011;43289;52.962;6.196;2022-08-19T11:25:05;10.93;;;8.70;;
57443;SDS011;43289;52.962;6.196;2022-08-19T11:27:31;13.75;;;10.25;;
57443;SDS011;43289;52.962;6.196;2022-08-19T11:29:58;12.60;;;10.50;;
57443;SDS011;43289;52.962;6.196;2022-08-19T11:32:25;12.07;;;10.85;;
57443;SDS011;43289;52.962;6.196;2022-08-19T11:34:52;13.75;;;10.40;;
57443;SDS011;43289;52.962;6.196;2022-08-19T11:37:19;14.38;;;10.50;;
57443;SDS011;43289;52.962;6.196;2022-08-19T11:39:45;13.30;;;8.90;;
57443;SDS011;43289;52.962;6.196;2022-08-19T11:42:11;12.20;;;10.25;;
57443;SDS011;43289;52.962;6.196;2022-08-19T11:44:56;15.15;;;12.73;;
57443;SDS011;43289;52.962;6.196;2022-08-19T11:47:22;16.10;;;12.60;;
57443;SDS011;43289;52.962;6.196;2022-08-19T11:49:48;12.55;;;10.55;;
57443;SDS011;43289;52.962;6.196;2022-08-19T11:52:14;17.35;;;13.52;;
57443;SDS011;43289;52.962;6.196;2022-08-19T11:54:40;15.27;;;13.15;;
57443;SDS011;43289;52.962;6.196;2022-08-19T11:57:06;16.15;;;14.32;;
57443;SDS011;43289;52.962;6.196;2022-08-19T11:59:32;16.58;;;11.50;;
57443;SDS011;43289;52.962;6.196;2022-08-19T12:01:58;17.52;;;13.95;;
57443;SDS011;43289;52.962;6.196;2022-08-19T12:04:24;15.55;;;12.23;;
57443;SDS011;43289;52.962;6.196;2022-08-19T12:06:56;17.00;;;12.65;;
57443;SDS011;43289;52.962;6.196;2022-08-19T12:09:22;14.63;;;11.95;;
57443;SDS011;43289;52.962;6.196;2022-08-19T12:11:48;15.23;;;13.20;;
57443;SDS011;43289;52.962;6.196;2022-08-19T12:14:18;17.27;;;12.93;;
57443;SDS011;43289;52.962;6.196;2022-08-19T12:16:44;16.65;;;13.32;;
57443;SDS011;43289;52.962;6.196;2022-08-19T12:19:11;15.43;;;12.57;;
57443;SDS011;43289;52.962;6.196;2022-08-19T12:21:37;20.25;;;15.13;;
57443;SDS011;43289;52.962;6.196;2022-08-19T12:24:04;21.13;;;16.60;;
57443;SDS011;43289;52.962;6.196;2022-08-19T12:26:31;19.55;;;16.85;;
57443;SDS011;43289;52.962;6.196;2022-08-19T12:28:57;21.25;;;18.92;;
57443;SDS011;43289;52.962;6.196;2022-08-19T12:31:27;21.45;;;17.05;;
57443;SDS011;43289;52.962;6.196;2022-08-19T12:33:54;20.23;;;17.83;;
57443;SDS011;43289;52.962;6.196;2022-08-19T12:36:20;24.65;;;19.17;;
57443;SDS011;43289;52.962;6.196;2022-08-19T12:38:47;21.02;;;17.48;;
57443;SDS011;43289;52.962;6.196;2022-08-19T12:41:14;23.33;;;18.95;;
57443;SDS011;43289;52.962;6.196;2022-08-19T12:43:42;21.17;;;18.08;;
57443;SDS011;43289;52.962;6.196;2022-08-19T12:46:09;18.42;;;15.25;;
57443;SDS011;43289;52.962;6.196;2022-08-19T12:48:35;17.55;;;13.70;;
57443;SDS011;43289;52.962;6.196;2022-08-19T12:51:09;19.77;;;14.93;;
57443;SDS011;43289;52.962;6.196;2022-08-19T12:53:35;18.55;;;14.80;;
57443;SDS011;43289;52.962;6.196;2022-08-19T12:56:02;15.85;;;13.02;;
57443;SDS011;43289;52.962;6.196;2022-08-19T12:58:28;17.92;;;15.10;;
57443;SDS011;43289;52.962;6.196;2022-08-19T13:00:54;18.02;;;15.02;;
57443;SDS011;43289;52.962;6.196;2022-08-19T13:03:20;20.10;;;17.85;;
57443;SDS011;43289;52.962;6.196;2022-08-19T13:05:54;20.70;;;16.52;;
57443;SDS011;43289;52.962;6.196;2022-08-19T13:08:20;19.10;;;16.65;;
57443;SDS011;43289;52.962;6.196;2022-08-19T13:10:46;19.45;;;15.90;;
57443;SDS011;43289;52.962;6.196;2022-08-19T13:13:12;19.85;;;15.15;;
57443;SDS011;43289;52.962;6.196;2022-08-19T13:15:39;17.90;;;13.25;;
57443;SDS011;43289;52.962;6.196;2022-08-19T13:18:06;20.83;;;16.40;;
57443;SDS011;43289;52.962;6.196;2022-08-19T13:20:32;17.83;;;15.38;;
57443;SDS011;43289;52.962;6.196;2022-08-19T13:22:58;20.95;;;16.95;;
57443;SDS011;43289;52.962;6.196;2022-08-19T13:25:24;21.25;;;17.67;;
57443;SDS011;43289;52.962;6.196;2022-08-19T13:27:50;21.83;;;18.33;;
57443;SDS011;43289;52.962;6.196;2022-08-19T13:30:17;23.63;;;18.33;;
57443;SDS011;43289;52.962;6.196;2022-08-19T13:33:02;22.30;;;16.70;;
57443;SDS011;43289;52.962;6.196;2022-08-19T13:35:37;21.58;;;18.98;;
57443;SDS011;43289;52.962;6.196;2022-08-19T13:38:04;22.77;;;19.08;;
57443;SDS011;43289;52.962;6.196;2022-08-19T13:40:30;20.20;;;17.23;;
57443;SDS011;43289;52.962;6.196;2022-08-19T13:42:58;23.00;;;18.48;;
57443;SDS011;43289;52.962;6.196;2022-08-19T13:45:24;23.52;;;19.17;;
57443;SDS011;43289;52.962;6.196;2022-08-19T13:47:53;21.35;;;18.98;;
57443;SDS011;43289;52.962;6.196;2022-08-19T13:50:21;20.38;;;18.17;;
57443;SDS011;43289;52.962;6.196;2022-08-19T13:52:47;20.08;;;16.48;;
57443;SDS011;43289;52.962;6.196;2022-08-19T13:55:15;15.25;;;12.07;;
57443;SDS011;43289;52.962;6.196;2022-08-19T13:57:41;9.48;;;8.50;;
57443;SDS011;43289;52.962;6.196;2022-08-19T14:00:09;9.98;;;6.78;;
57443;SDS011;43289;52.962;6.196;2022-08-19T14:02:36;9.13;;;5.60;;
57443;SDS011;43289;52.962;6.196;2022-08-19T14:05:03;8.18;;;4.50;;
57443;SDS011;43289;52.962;6.196;2022-08-19T14:07:29;4.90;;;3.17;;
57443;SDS011;43289;52.962;6.196;2022-08-19T14:09:55;4.50;;;2.70;;
57443;SDS011;43289;52.962;6.196;2022-08-19T14:12:22;4.95;;;2.60;;
57443;SDS011;43289;52.962;6.196;2022-08-19T14:14:48;6.38;;;4.20;;
57443;SDS011;43289;52.962;6.196;2022-08-19T14:17:14;5.97;;;3.20;;
57443;SDS011;43289;52.962;6.196;2022-08-19T14:19:40;5.80;;;3.30;;
57443;SDS011;43289;52.962;6.196;2022-08-19T14:22:06;6.45;;;3.38;;
57443;SDS011;43289;52.962;6.196;2022-08-19T14:24:32;5.10;;;2.83;;
57443;SDS011;43289;52.962;6.196;2022-08-19T14:26:58;6.78;;;4.45;;
57443;SDS011;43289;52.962;6.196;2022-08-19T14:29:25;7.20;;;5.05;;
57443;SDS011;43289;52.962;6.196;2022-08-19T14:31:53;6.32;;;4.68;;
57443;SDS011;43289;52.962;6.196;2022-08-19T14:34:21;9.80;;;5.53;;
57443;SDS011;43289;52.962;6.196;2022-08-19T14:36:47;8.88;;;5.60;;
57443;SDS011;43289;52.962;6.196;2022-08-19T14:39:13;8.15;;;5.55;;
57443;SDS011;43289;52.962;6.196;2022-08-19T14:41:39;8.98;;;6.25;;
57443;SDS011;43289;52.962;6.196;2022-08-19T14:44:06;8.82;;;5.95;;
57443;SDS011;43289;52.962;6.196;2022-08-19T14:46:34;9.15;;;5.70;;
57443;SDS011;43289;52.962;6.196;2022-08-19T14:49:00;6.22;;;4.80;;
57443;SDS011;43289;52.962;6.196;2022-08-19T14:51:27;14.88;;;7.93;;
57443;SDS011;43289;52.962;6.196;2022-08-19T14:53:53;11.43;;;8.77;;
57443;SDS011;43289;52.962;6.196;2022-08-19T14:56:21;15.77;;;9.95;;
57443;SDS011;43289;52.962;6.196;2022-08-19T14:58:48;13.55;;;10.02;;
57443;SDS011;43289;52.962;6.196;2022-08-19T15:01:16;13.13;;;10.32;;
57443;SDS011;43289;52.962;6.196;2022-08-19T15:03:45;13.73;;;9.32;;
57443;SDS011;43289;52.962;6.196;2022-08-19T15:06:11;12.82;;;9.88;;
57443;SDS011;43289;52.962;6.196;2022-08-19T15:08:38;14.15;;;10.63;;
57443;SDS011;43289;52.962;6.196;2022-08-19T15:11:09;13.98;;;8.60;;
57443;SDS011;43289;52.962;6.196;2022-08-19T15:13:36;13.05;;;11.07;;
57443;SDS011;43289;52.962;6.196;2022-08-19T15:16:02;13.60;;;10.13;;
57443;SDS011;43289;52.962;6.196;2022-08-19T15:18:28;14.50;;;10.07;;
57443;SDS011;43289;52.962;6.196;2022-08-19T15:20:54;15.40;;;10.48;;
57443;SDS011;43289;52.962;6.196;2022-08-19T15:23:21;15.18;;;10.25;;
57443;SDS011;43289;52.962;6.196;2022-08-19T15:25:48;20.50;;;10.93;;
57443;SDS011;43289;52.962;6.196;2022-08-19T15:28:18;17.40;;;11.20;;
57443;SDS011;43289;52.962;6.196;2022-08-19T15:30:44;15.82;;;12.48;;
57443;SDS011;43289;52.962;6.196;2022-08-19T15:33:10;13.10;;;10.05;;
57443;SDS011;43289;52.962;6.196;2022-08-19T15:35:41;15.45;;;11.82;;
57443;SDS011;43289;52.962;6.196;2022-08-19T15:38:07;17.50;;;12.40;;
57443;SDS011;43289;52.962;6.196;2022-08-19T15:40:34;14.57;;;12.13;;
57443;SDS011;43289;52.962;6.196;2022-08-19T15:43:00;13.88;;;10.38;;
57443;SDS011;43289;52.962;6.196;2022-08-19T15:45:26;15.80;;;10.77;;
57443;SDS011;43289;52.962;6.196;2022-08-19T15:47:57;10.57;;;8.73;;
57443;SDS011;43289;52.962;6.196;2022-08-19T15:50:23;14.32;;;8.73;;
57443;SDS011;43289;52.962;6.196;2022-08-19T15:52:57;14.38;;;8.88;;
57443;SDS011;43289;52.962;6.196;2022-08-19T15:55:26;11.82;;;8.43;;
57443;SDS011;43289;52.962;6.196;2022-08-19T15:57:52;12.45;;;8.55;;
57443;SDS011;43289;52.962;6.196;2022-08-19T16:00:37;10.90;;;8.82;;
57443;SDS011;43289;52.962;6.196;2022-08-19T16:03:21;11.43;;;8.65;;
57443;SDS011;43289;52.962;6.196;2022-08-19T16:06:06;12.68;;;9.32;;
57443;SDS011;43289;52.962;6.196;2022-08-19T16:08:51;12.18;;;8.95;;
57443;SDS011;43289;52.962;6.196;2022-08-19T16:11:19;11.85;;;9.35;;
57443;SDS011;43289;52.962;6.196;2022-08-19T16:13:46;12.07;;;9.02;;
57443;SDS011;43289;52.962;6.196;2022-08-19T16:16:24;13.95;;;9.48;;
57443;SDS011;43289;52.962;6.196;2022-08-19T16:18:52;10.73;;;8.02;;
57443;SDS011;43289;52.962;6.196;2022-08-19T16:21:19;10.35;;;8.23;;
57443;SDS011;43289;52.962;6.196;2022-08-19T16:23:45;11.48;;;9.35;;
57443;SDS011;43289;52.962;6.196;2022-08-19T16:26:12;11.80;;;7.43;;
57443;SDS011;43289;52.962;6.196;2022-08-19T16:28:39;9.40;;;7.65;;
57443;SDS011;43289;52.962;6.196;2022-08-19T16:31:05;11.75;;;8.32;;
57443;SDS011;43289;52.962;6.196;2022-08-19T16:33:31;16.92;;;8.65;;
57443;SDS011;43289;52.962;6.196;2022-08-19T16:35:58;14.20;;;8.43;;
57443;SDS011;43289;52.962;6.196;2022-08-19T16:38:24;11.00;;;7.90;;
57443;SDS011;43289;52.962;6.196;2022-08-19T16:40:51;9.77;;;7.60;;
57443;SDS011;43289;52.962;6.196;2022-08-19T16:43:21;15.38;;;10.25;;
57443;SDS011;43289;52.962;6.196;2022-08-19T16:45:47;13.75;;;9.98;;
57443;SDS011;43289;52.962;6.196;2022-08-19T16:48:14;11.68;;;8.30;;
57443;SDS011;43289;52.962;6.196;2022-08-19T16:50:40;9.40;;;7.30;;
57443;SDS011;43289;52.962;6.196;2022-08-19T16:53:09;11.57;;;7.53;;
57443;SDS011;43289;52.962;6.196;2022-08-19T16:55:35;13.45;;;8.02;;
57443;SDS011;43289;52.962;6.196;2022-08-19T16:58:02;10.50;;;6.90;;
57443;SDS011;43289;52.962;6.196;2022-08-19T17:00:29;11.80;;;8.05;;
57443;SDS011;43289;52.962;6.196;2022-08-19T17:02:55;8.10;;;6.25;;
57443;SDS011;43289;52.962;6.196;2022-08-19T17:05:21;10.55;;;6.78;;
57443;SDS011;43289;52.962;6.196;2022-08-19T17:07:48;9.13;;;6.30;;
57443;SDS011;43289;52.962;6.196;2022-08-19T17:10:16;10.23;;;7.75;;
57443;SDS011;43289;52.962;6.196;2022-08-19T17:12:42;9.70;;;7.32;;
57443;SDS011;43289;52.962;6.196;2022-08-19T17:15:08;15.25;;;7.32;;
57443;SDS011;43289;52.962;6.196;2022-08-19T17:17:34;14.18;;;7.80;;
57443;SDS011;43289;52.962;6.196;2022-08-19T17:20:01;25.90;;;9.57;;
57443;SDS011;43289;52.962;6.196;2022-08-19T17:22:28;18.33;;;8.75;;
57443;SDS011;43289;52.962;6.196;2022-08-19T17:24:54;12.95;;;6.93;;
57443;SDS011;43289;52.962;6.196;2022-08-19T17:27:23;14.40;;;5.72;;
57443;SDS011;43289;52.962;6.196;2022-08-19T17:29:49;15.50;;;4.28;;
57443;SDS011;43289;52.962;6.196;2022-08-19T17:32:16;13.93;;;5.53;;
57443;SDS011;43289;52.962;6.196;2022-08-19T17:34:43;13.10;;;4.85;;
57443;SDS011;43289;52.962;6.196;2022-08-19T17:37:09;7.97;;;4.32;;
57443;SDS011;43289;52.962;6.196;2022-08-19T17:39:35;9.70;;;3.88;;
57443;SDS011;43289;52.962;6.196;2022-08-19T17:42:03;10.48;;;4.80;;
57443;SDS011;43289;52.962;6.196;2022-08-19T17:44:29;7.78;;;3.85;;
57443;SDS011;43289;52.962;6.196;2022-08-19T17:46:57;6.75;;;3.28;;
57443;SDS011;43289;52.962;6.196;2022-08-19T17:49:23;7.63;;;3.90;;
57443;SDS011;43289;52.962;6.196;2022-08-19T17:51:49;9.00;;;3.28;;
57443;SDS011;43289;52.962;6.196;2022-08-19T17:54:17;9.55;;;3.47;;
57443;SDS011;43289;52.962;6.196;2022-08-19T17:56:44;10.43;;;4.30;;
57443;SDS011;43289;52.962;6.196;2022-08-19T17:59:10;11.35;;;3.92;;
57443;SDS011;43289;52.962;6.196;2022-08-19T18:01:36;7.75;;;3.38;;
57443;SDS011;43289;52.962;6.196;2022-08-19T18:04:03;12.80;;;3.53;;
57443;SDS011;43289;52.962;6.196;2022-08-19T18:06:31;17.98;;;3.33;;
57443;SDS011;43289;52.962;6.196;2022-08-19T18:08:57;9.30;;;3.80;;
57443;SDS011;43289;52.962;6.196;2022-08-19T18:11:23;9.52;;;4.75;;
57443;SDS011;43289;52.962;6.196;2022-08-19T18:13:49;7.78;;;3.40;;
57443;SDS011;43289;52.962;6.196;2022-08-19T18:16:16;7.40;;;3.28;;
57443;SDS011;43289;52.962;6.196;2022-08-19T18:18:44;10.15;;;4.55;;
57443;SDS011;43289;52.962;6.196;2022-08-19T18:21:11;7.15;;;3.38;;
57443;SDS011;43289;52.962;6.196;2022-08-19T18:23:37;11.48;;;5.72;;
57443;SDS011;43289;52.962;6.196;2022-08-19T18:26:03;7.72;;;4.05;;
57443;SDS011;43289;52.962;6.196;2022-08-19T18:28:30;13.90;;;6.55;;
57443;SDS011;43289;52.962;6.196;2022-08-19T18:30:56;6.25;;;3.30;;
57443;SDS011;43289;52.962;6.196;2022-08-19T18:33:23;7.30;;;4.03;;
57443;SDS011;43289;52.962;6.196;2022-08-19T18:35:49;9.73;;;5.22;;
57443;SDS011;43289;52.962;6.196;2022-08-19T18:38:18;11.90;;;5.78;;
57443;SDS011;43289;52.962;6.196;2022-08-19T18:41:04;12.15;;;6.25;;
57443;SDS011;43289;52.962;6.196;2022-08-19T18:43:49;11.88;;;7.22;;
57443;SDS011;43289;52.962;6.196;2022-08-19T18:46:34;14.40;;;8.25;;
57443;SDS011;43289;52.962;6.196;2022-08-19T18:49:23;18.48;;;10.43;;
57443;SDS011;43289;52.962;6.196;2022-08-19T18:51:50;14.98;;;9.52;;
57443;SDS011;43289;52.962;6.196;2022-08-19T18:54:16;21.85;;;12.32;;
57443;SDS011;43289;52.962;6.196;2022-08-19T18:56:43;14.32;;;10.82;;
57443;SDS011;43289;52.962;6.196;2022-08-19T18:59:11;20.13;;;12.20;;
57443;SDS011;43289;52.962;6.196;2022-08-19T19:01:41;17.15;;;10.43;;
57443;SDS011;43289;52.962;6.196;2022-08-19T19:04:31;17.80;;;10.85;;
57443;SDS011;43289;52.962;6.196;2022-08-19T19:06:58;13.27;;;10.15;;
57443;SDS011;43289;52.962;6.196;2022-08-19T19:09:28;13.45;;;9.88;;
57443;SDS011;43289;52.962;6.196;2022-08-19T19:11:58;18.25;;;10.68;;
57443;SDS011;43289;52.962;6.196;2022-08-19T19:14:26;22.30;;;12.52;;
57443;SDS011;43289;52.962;6.196;2022-08-19T19:16:56;14.55;;;10.35;;
57443;SDS011;43289;52.962;6.196;2022-08-19T19:19:23;15.38;;;9.85;;
57443;SDS011;43289;52.962;6.196;2022-08-19T19:21:53;11.20;;;9.48;;
57443;SDS011;43289;52.962;6.196;2022-08-19T19:24:25;15.93;;;11.32;;
57443;SDS011;43289;52.962;6.196;2022-08-19T19:27:02;17.80;;;11.35;;
57443;SDS011;43289;52.962;6.196;2022-08-19T19:29:31;23.42;;;12.32;;
57443;SDS011;43289;52.962;6.196;2022-08-19T19:32:14;14.93;;;10.65;;
57443;SDS011;43289;52.962;6.196;2022-08-19T19:34:41;15.93;;;11.43;;
57443;SDS011;43289;52.962;6.196;2022-08-19T19:37:07;14.38;;;10.75;;
57443;SDS011;43289;52.962;6.196;2022-08-19T19:39:33;20.10;;;12.70;;
57443;SDS011;43289;52.962;6.196;2022-08-19T19:42:00;17.42;;;12.38;;
57443;SDS011;43289;52.962;6.196;2022-08-19T19:44:30;16.77;;;11.75;;
57443;SDS011;43289;52.962;6.196;2022-08-19T19:46:56;17.17;;;11.63;;
57443;SDS011;43289;52.962;6.196;2022-08-19T19:51:58;31.63;;;16.23;;
57443;SDS011;43289;52.962;6.196;2022-08-19T19:54:24;17.48;;;12.60;;
57443;SDS011;43289;52.962;6.196;2022-08-19T19:56:51;18.52;;;12.57;;
57443;SDS011;43289;52.962;6.196;2022-08-19T19:59:18;21.23;;;13.13;;
57443;SDS011;43289;52.962;6.196;2022-08-19T20:01:44;19.48;;;12.18;;
57443;SDS011;43289;52.962;6.196;2022-08-19T20:04:11;17.77;;;12.65;;
57443;SDS011;43289;52.962;6.196;2022-08-19T20:06:38;17.38;;;11.77;;
57443;SDS011;43289;52.962;6.196;2022-08-19T20:09:07;21.13;;;13.13;;
57443;SDS011;43289;52.962;6.196;2022-08-19T20:11:40;21.63;;;13.68;;
57443;SDS011;43289;52.962;6.196;2022-08-19T20:14:22;17.75;;;11.43;;
57443;SDS011;43289;52.962;6.196;2022-08-19T20:16:53;27.25;;;15.90;;
57443;SDS011;43289;52.962;6.196;2022-08-19T20:19:32;25.45;;;15.05;;
57443;SDS011;43289;52.962;6.196;2022-08-19T20:22:02;25.55;;;15.07;;
57443;SDS011;43289;52.962;6.196;2022-08-19T20:24:30;19.85;;;13.88;;
57443;SDS011;43289;52.962;6.196;2022-08-19T20:27:01;24.83;;;14.00;;
57443;SDS011;43289;52.962;6.196;2022-08-19T20:29:27;19.73;;;12.27;;
57443;SDS011;43289;52.962;6.196;2022-08-19T20:31:54;16.73;;;12.07;;
57443;SDS011;43289;52.962;6.196;2022-08-19T20:34:20;25.35;;;14.18;;
57443;SDS011;43289;52.962;6.196;2022-08-19T20:36:50;19.58;;;12.57;;
57443;SDS011;43289;52.962;6.196;2022-08-19T20:39:16;18.02;;;13.00;;
57443;SDS011;43289;52.962;6.196;2022-08-19T20:41:43;17.70;;;11.00;;
57443;SDS011;43289;52.962;6.196;2022-08-19T20:44:10;13.15;;;11.00;;
57443;SDS011;43289;52.962;6.196;2022-08-19T20:46:36;17.98;;;12.68;;
57443;SDS011;43289;52.962;6.196;2022-08-19T20:49:02;17.15;;;13.10;;
57443;SDS011;43289;52.962;6.196;2022-08-19T20:51:29;26.95;;;14.98;;
57443;SDS011;43289;52.962;6.196;2022-08-19T20:53:56;28.73;;;16.02;;
57443;SDS011;43289;52.962;6.196;2022-08-19T20:56:23;22.88;;;14.23;;
57443;SDS011;43289;52.962;6.196;2022-08-19T20:58:49;29.92;;;15.68;;
57443;SDS011;43289;52.962;6.196;2022-08-19T21:01:16;30.80;;;15.35;;
57443;SDS011;43289;52.962;6.196;2022-08-19T21:03:42;31.90;;;17.30;;
57443;SDS011;43289;52.962;6.196;2022-08-19T21:06:09;22.58;;;14.48;;
57443;SDS011;43289;52.962;6.196;2022-08-19T21:08:36;23.42;;;13.85;;
57443;SDS011;43289;52.962;6.196;2022-08-19T21:11:02;18.27;;;12.85;;
57443;SDS011;43289;52.962;6.196;2022-08-19T21:13:30;25.83;;;16.55;;
57443;SDS011;43289;52.962;6.196;2022-08-19T21:15:56;33.72;;;15.82;;
57443;SDS011;43289;52.962;6.196;2022-08-19T21:18:23;36.38;;;18.05;;
57443;SDS011;43289;52.962;6.196;2022-08-19T21:20:54;24.70;;;15.82;;
57443;SDS011;43289;52.962;6.196;2022-08-19T21:23:23;18.65;;;12.93;;
57443;SDS011;43289;52.962;6.196;2022-08-19T21:25:54;21.23;;;12.57;;
57443;SDS011;43289;52.962;6.196;2022-08-19T21:28:25;17.38;;;11.57;;
57443;SDS011;43289;52.962;6.196;2022-08-19T21:30:56;18.13;;;12.07;;
57443;SDS011;43289;52.962;6.196;2022-08-19T21:33:23;17.23;;;11.45;;
57443;SDS011;43289;52.962;6.196;2022-08-19T21:35:49;17.25;;;11.05;;
57443;SDS011;43289;52.962;6.196;2022-08-19T21:38:16;20.05;;;12.45;;
57443;SDS011;43289;52.962;6.196;2022-08-19T21:40:43;17.67;;;10.88;;
57443;SDS011;43289;52.962;6.196;2022-08-19T21:43:09;22.08;;;12.30;;
57443;SDS011;43289;52.962;6.196;2022-08-19T21:45:35;17.17;;;12.50;;
57443;SDS011;43289;52.962;6.196;2022-08-19T21:48:01;17.02;;;11.80;;
57443;SDS011;43289;52.962;6.196;2022-08-19T21:50:28;14.93;;;10.88;;
57443;SDS011;43289;52.962;6.196;2022-08-19T21:52:56;18.65;;;9.82;;
57443;SDS011;43289;52.962;6.196;2022-08-19T21:55:22;14.10;;;9.82;;
57443;SDS011;43289;52.962;6.196;2022-08-19T21:57:48;12.73;;;9.27;;
57443;SDS011;43289;52.962;6.196;2022-08-19T22:00:17;16.17;;;11.00;;
57443;SDS011;43289;52.962;6.196;2022-08-19T22:02:44;14.27;;;9.57;;
57443;SDS011;43289;52.962;6.196;2022-08-19T22:05:10;14.48;;;8.90;;
57443;SDS011;43289;52.962;6.196;2022-08-19T22:07:36;13.07;;;9.55;;
57443;SDS011;43289;52.962;6.196;2022-08-19T22:10:04;17.67;;;9.60;;
57443;SDS011;43289;52.962;6.196;2022-08-19T22:12:31;14.68;;;9.88;;
57443;SDS011;43289;52.962;6.196;2022-08-19T22:14:59;16.35;;;9.82;;
57443;SDS011;43289;52.962;6.196;2022-08-19T22:17:26;15.73;;;9.88;;
57443;SDS011;43289;52.962;6.196;2022-08-19T22:19:54;17.63;;;9.80;;
57443;SDS011;43289;52.962;6.196;2022-08-19T22:22:28;14.80;;;9.88;;
57443;SDS011;43289;52.962;6.196;2022-08-19T22:24:59;17.27;;;10.57;;
57443;SDS011;43289;52.962;6.196;2022-08-19T22:27:25;18.15;;;11.75;;
57443;SDS011;43289;52.962;6.196;2022-08-19T22:29:52;17.05;;;11.85;;
57443;SDS011;43289;52.962;6.196;2022-08-19T22:32:18;14.77;;;9.90;;
57443;SDS011;43289;52.962;6.196;2022-08-19T22:34:44;17.27;;;11.27;;
57443;SDS011;43289;52.962;6.196;2022-08-19T22:37:10;19.50;;;11.35;;
57443;SDS011;43289;52.962;6.196;2022-08-19T22:39:37;17.95;;;11.68;;
57443;SDS011;43289;52.962;6.196;2022-08-19T22:42:04;17.92;;;10.38;;
57443;SDS011;43289;52.962;6.196;2022-08-19T22:44:31;14.27;;;10.00;;
57443;SDS011;43289;52.962;6.196;2022-08-19T22:46:57;15.88;;;10.45;;
57443;SDS011;43289;52.962;6.196;2022-08-19T22:49:23;16.02;;;11.68;;
57443;SDS011;43289;52.962;6.196;2022-08-19T22:51:49;20.35;;;12.75;;
57443;SDS011;43289;52.962;6.196;2022-08-19T22:54:35;14.05;;;9.82;;
57443;SDS011;43289;52.962;6.196;2022-08-19T22:57:01;11.57;;;9.98;;
57443;SDS011;43289;52.962;6.196;2022-08-19T22:59:27;18.15;;;11.43;;
57443;SDS011;43289;52.962;6.196;2022-08-19T23:01:53;14.55;;;10.57;;
57443;SDS011;43289;52.962;6.196;2022-08-19T23:04:19;20.45;;;13.85;;
57443;SDS011;43289;52.962;6.196;2022-08-19T23:06:46;21.75;;;12.15;;
57443;SDS011;43289;52.962;6.196;2022-08-19T23:09:13;21.48;;;11.13;;
57443;SDS011;43289;52.962;6.196;2022-08-19T23:11:39;21.33;;;12.15;;
57443;SDS011;43289;52.962;6.196;2022-08-19T23:14:05;19.77;;;12.00;;
57443;SDS011;43289;52.962;6.196;2022-08-19T23:16:31;19.90;;;12.32;;
57443;SDS011;43289;52.962;6.196;2022-08-19T23:18:59;20.08;;;12.55;;
57443;SDS011;43289;52.962;6.196;2022-08-19T23:21:25;28.90;;;14.43;;
57443;SDS011;43289;52.962;6.196;2022-08-19T23:23:51;19.70;;;12.30;;
57443;SDS011;43289;52.962;6.196;2022-08-19T23:26:18;18.45;;;12.65;;
57443;SDS011;43289;52.962;6.196;2022-08-19T23:28:44;24.23;;;13.73;;
57443;SDS011;43289;52.962;6.196;2022-08-19T23:31:29;12.70;;;9.95;;
57443;SDS011;43289;52.962;6.196;2022-08-19T23:33:55;13.48;;;9.70;;
57443;SDS011;43289;52.962;6.196;2022-08-19T23:36:21;31.17;;;12.98;;
57443;SDS011;43289;52.962;6.196;2022-08-19T23:38:48;18.10;;;10.77;;
57443;SDS011;43289;52.962;6.196;2022-08-19T23:41:16;13.38;;;9.77;;
57443;SDS011;43289;52.962;6.196;2022-08-19T23:43:43;36.08;;;16.02;;
57443;SDS011;43289;52.962;6.196;2022-08-19T23:46:10;24.35;;;14.15;;
57443;SDS011;43289;52.962;6.196;2022-08-19T23:48:36;18.83;;;12.95;;
57443;SDS011;43289;52.962;6.196;2022-08-19T23:51:05;16.85;;;10.88;;
57443;SDS011;43289;52.962;6.196;2022-08-19T23:53:31;17.35;;;11.30;;
57443;SDS011;43289;52.962;6.196;2022-08-19T23:55:58;14.57;;;10.52;;
57443;SDS011;43289;52.962;6.196;2022-08-19T23:58:24;24.05;;;14.23;;
